sensor_id;sensor_type;location;lat;lon;timestamp;pressure;altitude;pressure_sealevel;temperature;humidity
18918;BME280;9591;52.742;13.650;2023-02-12T00:01:53;102823.28;;;9.75;100.00
18918;BME280;9591;52.742;13.650;2023-02-12T00:04:40;102822.34;;;9.67;100.00
18918;BME280;9591;52.742;13.650;2023-02-12T00:07:28;102827.72;;;9.84;100.00
18918;BME280;9591;52.742;13.650;2023-02-12T00:10:17;102840.06;;;9.80;100.00
18918;BME280;9591;52.742;13.650;2023-02-12T00:13:04;102836.56;;;9.92;100.00
18918;BME280;9591;52.742;13.650;2023-02-12T00:15:51;102840.97;;;9.85;100.00
18918;BME280;9591;52.742;13.650;2023-02-12T00:18:38;102842.66;;;9.74;100.00
18918;BME280;9591;52.742;13.650;2023-02-12T00:21:25;102852.41;;;9.80;100.00
18918;BME280;9591;52.742;13.650;2023-02-12T00:24:12;102850.59;;;9.74;100.00
18918;BME280;9591;52.742;13.650;2023-02-12T00:26:59;102857.66;;;9.72;100.00
18918;BME280;9591;52.742;13.650;2023-02-12T00:29:46;102856.78;;;9.73;100.00
18918;BME280;9591;52.742;13.650;2023-02-12T00:32:33;102852.38;;;9.72;100.00
18918;BME280;9591;52.742;13.650;2023-02-12T00:35:21;102849.75;;;9.78;100.00
18918;BME280;9591;52.742;13.650;2023-02-12T00:38:08;102854.06;;;9.61;100.00
18918;BME280;9591;52.742;13.650;2023-02-12T00:40:55;102847.03;;;9.66;100.00
18918;BME280;9591;52.742;13.650;2023-02-12T00:43:43;102857.69;;;9.81;100.00
18918;BME280;9591;52.742;13.650;2023-02-12T00:46:30;102860.28;;;9.66;100.00
18918;BME280;9591;52.742;13.650;2023-02-12T00:49:17;102859.34;;;9.60;100.00
18918;BME280;9591;52.742;13.650;2023-02-12T00:52:05;102858.47;;;9.53;100.00
18918;BME280;9591;52.742;13.650;2023-02-12T00:54:51;102862.88;;;9.51;100.00
18918;BME280;9591;52.742;13.650;2023-02-12T00:57:38;102863.72;;;9.54;100.00
18918;BME280;9591;52.742;13.650;2023-02-12T01:00:26;102862.09;;;9.76;100.00
18918;BME280;9591;52.742;13.650;2023-02-12T01:03:14;102863.88;;;9.80;100.00
18918;BME280;9591;52.742;13.650;2023-02-12T01:06:01;102864.66;;;9.61;100.00
18918;BME280;9591;52.742;13.650;2023-02-12T01:08:49;102866.38;;;9.56;100.00
18918;BME280;9591;52.742;13.650;2023-02-12T01:11:37;102876.97;;;9.54;100.00
18918;BME280;9591;52.742;13.650;2023-02-12T01:14:24;102871.72;;;9.62;100.00
18918;BME280;9591;52.742;13.650;2023-02-12T01:17:12;102877.06;;;9.73;100.00
18918;BME280;9591;52.742;13.650;2023-02-12T01:20:02;102883.28;;;9.79;100.00
18918;BME280;9591;52.742;13.650;2023-02-12T01:22:51;102863.75;;;9.58;100.00
18918;BME280;9591;52.742;13.650;2023-02-12T01:25:38;102892.06;;;9.71;100.00
18918;BME280;9591;52.742;13.650;2023-02-12T01:28:24;102904.22;;;9.37;100.00
18918;BME280;9591;52.742;13.650;2023-02-12T01:31:13;102906.09;;;9.58;100.00
18918;BME280;9591;52.742;13.650;2023-02-12T01:34:02;102909.56;;;9.46;100.00
18918;BME280;9591;52.742;13.650;2023-02-12T01:36:50;102907.72;;;9.33;100.00
18918;BME280;9591;52.742;13.650;2023-02-12T01:39:37;102911.94;;;9.09;100.00
18918;BME280;9591;52.742;13.650;2023-02-12T01:42:24;102905.75;;;9.09;100.00
18918;BME280;9591;52.742;13.650;2023-02-12T01:45:42;102917.25;;;9.14;100.00
18918;BME280;9591;52.742;13.650;2023-02-12T01:48:33;102920.66;;;9.02;100.00
18918;BME280;9591;52.742;13.650;2023-02-12T01:51:24;102922.34;;;8.91;100.00
18918;BME280;9591;52.742;13.650;2023-02-12T01:54:12;102929.34;;;8.86;100.00
18918;BME280;9591;52.742;13.650;2023-02-12T01:57:01;102926.69;;;8.86;100.00
18918;BME280;9591;52.742;13.650;2023-02-12T01:59:50;102929.34;;;8.86;100.00
18918;BME280;9591;52.742;13.650;2023-02-12T02:02:39;102935.50;;;8.86;100.00
18918;BME280;9591;52.742;13.650;2023-02-12T02:05:30;102925.72;;;8.78;100.00
18918;BME280;9591;52.742;13.650;2023-02-12T02:08:20;102945.16;;;8.84;100.00
18918;BME280;9591;52.742;13.650;2023-02-12T02:11:08;102938.97;;;8.79;100.00
18918;BME280;9591;52.742;13.650;2023-02-12T02:14:09;102945.19;;;8.87;100.00
18918;BME280;9591;52.742;13.650;2023-02-12T02:17:26;102942.56;;;8.87;100.00
18918;BME280;9591;52.742;13.650;2023-02-12T02:23:40;102946.03;;;8.83;100.00
18918;BME280;9591;52.742;13.650;2023-02-12T02:27:01;102948.63;;;8.77;100.00
18918;BME280;9591;52.742;13.650;2023-02-12T02:30:21;102945.28;;;8.97;100.00
18918;BME280;9591;52.742;13.650;2023-02-12T02:33:17;102944.59;;;9.17;100.00
18918;BME280;9591;52.742;13.650;2023-02-12T02:36:17;102939.13;;;8.96;100.00
18918;BME280;9591;52.742;13.650;2023-02-12T02:39:15;102938.38;;;9.11;100.00
18918;BME280;9591;52.742;13.650;2023-02-12T02:42:09;102939.09;;;8.93;100.00
18918;BME280;9591;52.742;13.650;2023-02-12T02:44:59;102945.34;;;9.03;100.00
18918;BME280;9591;52.742;13.650;2023-02-12T02:47:55;102949.81;;;9.08;100.00
18918;BME280;9591;52.742;13.650;2023-02-12T02:50:47;102944.56;;;9.11;100.00
18918;BME280;9591;52.742;13.650;2023-02-12T02:53:38;102955.31;;;9.34;100.00
18918;BME280;9591;52.742;13.650;2023-02-12T02:56:28;102949.22;;;9.44;100.00
18918;BME280;9591;52.742;13.650;2023-02-12T02:59:18;102959.75;;;9.38;100.00
18918;BME280;9591;52.742;13.650;2023-02-12T03:02:11;102956.16;;;9.29;100.00
18918;BME280;9591;52.742;13.650;2023-02-12T03:05:05;102966.88;;;9.45;100.00
18918;BME280;9591;52.742;13.650;2023-02-12T03:07:58;102964.22;;;9.42;100.00
18918;BME280;9591;52.742;13.650;2023-02-12T03:10:51;102965.94;;;9.40;100.00
18918;BME280;9591;52.742;13.650;2023-02-12T03:13:42;102963.09;;;9.14;100.00
18918;BME280;9591;52.742;13.650;2023-02-12T03:16:34;102957.91;;;9.27;100.00
18918;BME280;9591;52.742;13.650;2023-02-12T03:19:24;102960.47;;;9.17;100.00
18918;BME280;9591;52.742;13.650;2023-02-12T03:22:16;102966.75;;;9.32;100.00
18918;BME280;9591;52.742;13.650;2023-02-12T03:25:08;102972.88;;;9.25;100.00
18918;BME280;9591;52.742;13.650;2023-02-12T03:28:03;102980.84;;;9.28;100.00
18918;BME280;9591;52.742;13.650;2023-02-12T03:30:58;102987.00;;;9.28;100.00
18918;BME280;9591;52.742;13.650;2023-02-12T03:33:53;102979.13;;;9.34;100.00
18918;BME280;9591;52.742;13.650;2023-02-12T03:36:48;102986.19;;;9.34;100.00
18918;BME280;9591;52.742;13.650;2023-02-12T03:39:44;102980.06;;;9.39;100.00
18918;BME280;9591;52.742;13.650;2023-02-12T03:42:38;102994.00;;;9.20;100.00
18918;BME280;9591;52.742;13.650;2023-02-12T03:45:44;102992.19;;;9.17;100.00
18918;BME280;9591;52.742;13.650;2023-02-12T03:48:35;102989.63;;;9.27;100.00
18918;BME280;9591;52.742;13.650;2023-02-12T03:51:27;102985.84;;;9.00;100.00
18918;BME280;9591;52.742;13.650;2023-02-12T03:54:17;102992.78;;;8.87;100.00
18918;BME280;9591;52.742;13.650;2023-02-12T03:57:09;102991.25;;;9.11;100.00
18918;BME280;9591;52.742;13.650;2023-02-12T03:59:57;103002.81;;;9.20;100.00
18918;BME280;9591;52.742;13.650;2023-02-12T04:02:58;103006.13;;;9.00;100.00
18918;BME280;9591;52.742;13.650;2023-02-12T04:05:45;103002.69;;;9.08;100.00
18918;BME280;9591;52.742;13.650;2023-02-12T04:08:32;103010.56;;;9.04;100.00
18918;BME280;9591;52.742;13.650;2023-02-12T04:11:27;103011.25;;;8.84;100.00
18918;BME280;9591;52.742;13.650;2023-02-12T04:14:24;103016.47;;;8.78;100.00
18918;BME280;9591;52.742;13.650;2023-02-12T04:17:19;103020.72;;;8.67;100.00
18918;BME280;9591;52.742;13.650;2023-02-12T04:20:12;103018.09;;;8.64;100.00
18918;BME280;9591;52.742;13.650;2023-02-12T04:23:11;103018.03;;;8.60;100.00
18918;BME280;9591;52.742;13.650;2023-02-12T04:26:09;103025.44;;;8.93;100.00
18918;BME280;9591;52.742;13.650;2023-02-12T04:29:10;103009.19;;;8.56;100.00
18918;BME280;9591;52.742;13.650;2023-02-12T04:32:06;103021.44;;;8.51;100.00
18918;BME280;9591;52.742;13.650;2023-02-12T04:35:01;103023.19;;;8.50;100.00
18918;BME280;9591;52.742;13.650;2023-02-12T04:37:53;103024.25;;;8.68;100.00
18918;BME280;9591;52.742;13.650;2023-02-12T04:40:42;103014.53;;;8.61;100.00
18918;BME280;9591;52.742;13.650;2023-02-12T04:43:31;103018.31;;;8.85;100.00
18918;BME280;9591;52.742;13.650;2023-02-12T04:46:21;103020.34;;;9.12;100.00
18918;BME280;9591;52.742;13.650;2023-02-12T04:49:13;103022.84;;;8.99;100.00
18918;BME280;9591;52.742;13.650;2023-02-12T04:51:59;103022.84;;;8.97;100.00
18918;BME280;9591;52.742;13.650;2023-02-12T04:54:46;103021.84;;;8.87;100.00
18918;BME280;9591;52.742;13.650;2023-02-12T04:57:33;103034.19;;;8.88;100.00
18918;BME280;9591;52.742;13.650;2023-02-12T05:00:20;103035.25;;;9.06;100.00
18918;BME280;9591;52.742;13.650;2023-02-12T05:03:07;102997.84;;;8.68;100.00
18918;BME280;9591;52.742;13.650;2023-02-12T05:06:01;103032.53;;;8.97;100.00
18918;BME280;9591;52.742;13.650;2023-02-12T05:08:48;103035.16;;;8.95;100.00
18918;BME280;9591;52.742;13.650;2023-02-12T05:11:34;103037.06;;;9.08;100.00
18918;BME280;9591;52.742;13.650;2023-02-12T05:14:23;103046.00;;;9.21;100.00
18918;BME280;9591;52.742;13.650;2023-02-12T05:17:09;103038.06;;;9.19;100.00
18918;BME280;9591;52.742;13.650;2023-02-12T05:19:56;103040.59;;;9.10;100.00
18918;BME280;9591;52.742;13.650;2023-02-12T05:22:45;103037.81;;;8.97;100.00
18918;BME280;9591;52.742;13.650;2023-02-12T05:25:31;103039.72;;;9.10;100.00
18918;BME280;9591;52.742;13.650;2023-02-12T05:28:18;103041.44;;;9.06;100.00
18918;BME280;9591;52.742;13.650;2023-02-12T05:31:07;103035.34;;;9.15;100.00
18918;BME280;9591;52.742;13.650;2023-02-12T05:33:54;103044.00;;;8.99;100.00
18918;BME280;9591;52.742;13.650;2023-02-12T05:36:41;103037.22;;;9.24;100.00
18918;BME280;9591;52.742;13.650;2023-02-12T05:39:30;103028.44;;;9.28;100.00
18918;BME280;9591;52.742;13.650;2023-02-12T05:42:16;103038.66;;;8.94;100.00
18918;BME280;9591;52.742;13.650;2023-02-12T05:45:04;103021.63;;;8.66;100.00
18918;BME280;9591;52.742;13.650;2023-02-12T05:47:50;103042.72;;;8.62;100.00
18918;BME280;9591;52.742;13.650;2023-02-12T05:50:37;103047.06;;;8.57;100.00
18918;BME280;9591;52.742;13.650;2023-02-12T05:53:25;103046.13;;;8.53;100.00
18918;BME280;9591;52.742;13.650;2023-02-12T05:56:15;103053.13;;;8.49;100.00
18918;BME280;9591;52.742;13.650;2023-02-12T05:59:04;103050.47;;;8.48;100.00
18918;BME280;9591;52.742;13.650;2023-02-12T06:01:51;103059.09;;;8.36;100.00
18918;BME280;9591;52.742;13.650;2023-02-12T06:04:37;103061.75;;;8.36;100.00
18918;BME280;9591;52.742;13.650;2023-02-12T06:07:24;103065.41;;;8.46;100.00
18918;BME280;9591;52.742;13.650;2023-02-12T06:10:11;103065.59;;;8.60;100.00
18918;BME280;9591;52.742;13.650;2023-02-12T06:12:59;103063.66;;;8.48;100.00
18918;BME280;9591;52.742;13.650;2023-02-12T06:15:46;103072.47;;;8.48;100.00
18918;BME280;9591;52.742;13.650;2023-02-12T06:18:34;103071.44;;;8.37;100.00
18918;BME280;9591;52.742;13.650;2023-02-12T06:21:23;103078.34;;;8.29;100.00
18918;BME280;9591;52.742;13.650;2023-02-12T06:24:10;103077.41;;;8.27;100.00
18918;BME280;9591;52.742;13.650;2023-02-12T06:26:57;103079.19;;;8.27;100.00
18918;BME280;9591;52.742;13.650;2023-02-12T06:29:46;103092.34;;;8.25;100.00
18918;BME280;9591;52.742;13.650;2023-02-12T06:32:32;103092.31;;;8.22;100.00
18918;BME280;9591;52.742;13.650;2023-02-12T06:35:19;103093.19;;;8.21;100.00
18918;BME280;9591;52.742;13.650;2023-02-12T06:38:06;103100.94;;;8.12;100.00
18918;BME280;9591;52.742;13.650;2023-02-12T06:40:53;103104.66;;;8.23;100.00
18918;BME280;9591;52.742;13.650;2023-02-12T06:43:40;103105.22;;;8.60;100.00
18918;BME280;9591;52.742;13.650;2023-02-12T06:46:28;103109.34;;;8.41;100.00
18918;BME280;9591;52.742;13.650;2023-02-12T06:49:15;103112.63;;;8.26;100.00
18918;BME280;9591;52.742;13.650;2023-02-12T06:52:02;103111.59;;;8.18;100.00
18918;BME280;9591;52.742;13.650;2023-02-12T06:54:49;103115.13;;;8.17;100.00
18918;BME280;9591;52.742;13.650;2023-02-12T06:57:36;103124.09;;;8.28;100.00
18918;BME280;9591;52.742;13.650;2023-02-12T07:00:23;103122.31;;;8.27;100.00
18918;BME280;9591;52.742;13.650;2023-02-12T07:03:11;103123.31;;;8.34;100.00
18918;BME280;9591;52.742;13.650;2023-02-12T07:05:58;103126.19;;;8.49;100.00
18918;BME280;9591;52.742;13.650;2023-02-12T07:08:45;103139.41;;;8.49;100.00
18918;BME280;9591;52.742;13.650;2023-02-12T07:11:33;103134.00;;;8.41;100.00
18918;BME280;9591;52.742;13.650;2023-02-12T07:14:22;103136.66;;;8.41;100.00
18918;BME280;9591;52.742;13.650;2023-02-12T07:17:09;103139.28;;;8.41;100.00
18918;BME280;9591;52.742;13.650;2023-02-12T07:19:57;103139.25;;;8.40;100.00
18918;BME280;9591;52.742;13.650;2023-02-12T07:22:44;103134.19;;;8.55;100.00
18918;BME280;9591;52.742;13.650;2023-02-12T07:25:31;103150.91;;;8.54;100.00
18918;BME280;9591;52.742;13.650;2023-02-12T07:28:18;103151.78;;;8.53;100.00
18918;BME280;9591;52.742;13.650;2023-02-12T07:31:05;103144.84;;;8.60;100.00
18918;BME280;9591;52.742;13.650;2023-02-12T07:33:54;103143.09;;;8.62;100.00
18918;BME280;9591;52.742;13.650;2023-02-12T07:36:42;103150.94;;;8.56;100.00
18918;BME280;9591;52.742;13.650;2023-02-12T07:39:29;103144.00;;;8.62;100.00
18918;BME280;9591;52.742;13.650;2023-02-12T07:42:16;103152.09;;;8.77;100.00
18918;BME280;9591;52.742;13.650;2023-02-12T07:45:07;103149.38;;;8.73;100.00
18918;BME280;9591;52.742;13.650;2023-02-12T07:47:54;103143.38;;;8.83;100.00
18918;BME280;9591;52.742;13.650;2023-02-12T07:50:41;103145.19;;;8.87;100.00
18918;BME280;9591;52.742;13.650;2023-02-12T07:53:29;103149.66;;;8.93;100.00
18918;BME280;9591;52.742;13.650;2023-02-12T07:56:17;103119.69;;;8.92;100.00
18918;BME280;9591;52.742;13.650;2023-02-12T07:59:06;103165.78;;;9.12;100.00
18918;BME280;9591;52.742;13.650;2023-02-12T08:01:53;103162.28;;;9.16;100.00
18918;BME280;9591;52.742;13.650;2023-02-12T08:04:40;103157.84;;;9.14;100.00
18918;BME280;9591;52.742;13.650;2023-02-12T08:07:27;103165.97;;;9.28;100.00
18918;BME280;9591;52.742;13.650;2023-02-12T08:10:16;103159.88;;;9.35;100.00
18918;BME280;9591;52.742;13.650;2023-02-12T08:13:06;103163.44;;;9.38;100.00
18918;BME280;9591;52.742;13.650;2023-02-12T08:15:59;103164.47;;;9.51;100.00
18918;BME280;9591;52.742;13.650;2023-02-12T08:18:46;103167.31;;;9.74;100.00
18918;BME280;9591;52.742;13.650;2023-02-12T08:21:33;103168.31;;;9.86;100.00
18918;BME280;9591;52.742;13.650;2023-02-12T08:24:20;103172.63;;;9.77;100.00
18918;BME280;9591;52.742;13.650;2023-02-12T08:27:08;103177.09;;;9.82;100.00
18918;BME280;9591;52.742;13.650;2023-02-12T08:29:55;103185.84;;;9.75;100.00
18918;BME280;9591;52.742;13.650;2023-02-12T08:32:42;103183.19;;;9.74;100.00
18918;BME280;9591;52.742;13.650;2023-02-12T08:35:29;103183.34;;;9.91;100.00
18918;BME280;9591;52.742;13.650;2023-02-12T08:38:15;103186.13;;;10.06;100.00
18918;BME280;9591;52.742;13.650;2023-02-12T08:41:06;103183.44;;;10.00;100.00
18918;BME280;9591;52.742;13.650;2023-02-12T08:43:56;103189.63;;;10.02;100.00
18918;BME280;9591;52.742;13.650;2023-02-12T08:46:44;103195.94;;;10.17;100.00
18918;BME280;9591;52.742;13.650;2023-02-12T08:49:32;103196.06;;;10.28;100.00
18918;BME280;9591;52.742;13.650;2023-02-12T08:52:18;103201.44;;;10.36;100.00
18918;BME280;9591;52.742;13.650;2023-02-12T08:55:06;103199.69;;;10.39;100.00
18918;BME280;9591;52.742;13.650;2023-02-12T08:57:52;103204.03;;;10.30;100.00
18918;BME280;9591;52.742;13.650;2023-02-12T09:00:43;103216.22;;;10.12;100.00
18918;BME280;9591;52.742;13.650;2023-02-12T09:03:30;103216.31;;;10.20;100.00
18918;BME280;9591;52.742;13.650;2023-02-12T09:06:19;103225.34;;;10.46;100.00
18918;BME280;9591;52.742;13.650;2023-02-12T09:09:05;103221.75;;;10.41;100.00
18918;BME280;9591;52.742;13.650;2023-02-12T09:11:52;103228.88;;;10.48;100.00
18918;BME280;9591;52.742;13.650;2023-02-12T09:14:39;103229.78;;;10.52;100.00
18918;BME280;9591;52.742;13.650;2023-02-12T09:17:27;103228.91;;;10.53;100.00
18918;BME280;9591;52.742;13.650;2023-02-12T09:20:14;103229.81;;;10.55;100.00
18918;BME280;9591;52.742;13.650;2023-02-12T09:23:01;103235.91;;;10.39;100.00
18918;BME280;9591;52.742;13.650;2023-02-12T09:25:48;103230.63;;;10.46;100.00
18918;BME280;9591;52.742;13.650;2023-02-12T09:28:35;103229.91;;;10.69;100.00
18918;BME280;9591;52.742;13.650;2023-02-12T09:31:25;103237.00;;;10.73;100.00
18918;BME280;9591;52.742;13.650;2023-02-12T09:34:13;103246.81;;;10.88;100.00
18918;BME280;9591;52.742;13.650;2023-02-12T09:37:00;103252.97;;;10.80;100.00
18918;BME280;9591;52.742;13.650;2023-02-12T09:39:47;103250.19;;;10.64;100.00
18918;BME280;9591;52.742;13.650;2023-02-12T09:42:48;103251.06;;;10.60;100.00
18918;BME280;9591;52.742;13.650;2023-02-12T09:45:41;103252.97;;;10.79;100.00
18918;BME280;9591;52.742;13.650;2023-02-12T09:48:36;103255.72;;;10.94;100.00
18918;BME280;9591;52.742;13.650;2023-02-12T09:51:27;103249.59;;;11.04;100.00
18918;BME280;9591;52.742;13.650;2023-02-12T09:54:16;103249.53;;;10.97;100.00
18918;BME280;9591;52.742;13.650;2023-02-12T09:57:06;103236.22;;;10.86;100.00
18918;BME280;9591;52.742;13.650;2023-02-12T10:00:02;103252.25;;;11.04;100.00
18918;BME280;9591;52.742;13.650;2023-02-12T10:02:52;103249.56;;;11.01;100.00
18918;BME280;9591;52.742;13.650;2023-02-12T10:05:42;103246.97;;;11.13;100.00
18918;BME280;9591;52.742;13.650;2023-02-12T10:08:40;103250.59;;;11.26;100.00
18918;BME280;9591;52.742;13.650;2023-02-12T10:11:44;103256.72;;;11.13;100.00
18918;BME280;9591;52.742;13.650;2023-02-12T10:14:55;103257.63;;;11.29;100.00
18918;BME280;9591;52.742;13.650;2023-02-12T10:17:50;103250.53;;;11.19;100.00
18918;BME280;9591;52.742;13.650;2023-02-12T10:20:49;103250.47;;;11.06;100.00
18918;BME280;9591;52.742;13.650;2023-02-12T10:23:55;103247.84;;;11.08;100.00
18918;BME280;9591;52.742;13.650;2023-02-12T10:26:46;103245.09;;;10.91;100.00
18918;BME280;9591;52.742;13.650;2023-02-12T10:29:38;103243.44;;;11.11;100.00
18918;BME280;9591;52.742;13.650;2023-02-12T10:32:28;103229.34;;;11.34;100.00
18918;BME280;9591;52.742;13.650;2023-02-12T10:35:24;103233.78;;;11.32;100.00
18918;BME280;9591;52.742;13.650;2023-02-12T10:38:15;103231.13;;;11.35;100.00
18918;BME280;9591;52.742;13.650;2023-02-12T10:41:04;103239.06;;;11.29;100.00
18918;BME280;9591;52.742;13.650;2023-02-12T10:43:51;103239.03;;;11.18;100.00
18918;BME280;9591;52.742;13.650;2023-02-12T10:46:38;103245.09;;;10.93;100.00
18918;BME280;9591;52.742;13.650;2023-02-12T10:49:25;103246.91;;;11.01;100.00
18918;BME280;9591;52.742;13.650;2023-02-12T10:52:30;103249.59;;;11.06;100.00
18918;BME280;9591;52.742;13.650;2023-02-12T10:55:25;103244.19;;;10.91;100.00
18918;BME280;9591;52.742;13.650;2023-02-12T10:58:20;103241.66;;;11.10;100.00
18918;BME280;9591;52.742;13.650;2023-02-12T11:01:15;103254.03;;;11.08;100.00
18918;BME280;9591;52.742;13.650;2023-02-12T11:04:19;103239.94;;;11.22;100.00
18918;BME280;9591;52.742;13.650;2023-02-12T11:07:07;103236.41;;;11.29;100.00
18918;BME280;9591;52.742;13.650;2023-02-12T11:09:56;103235.53;;;11.24;100.00
18918;BME280;9591;52.742;13.650;2023-02-12T11:12:42;103233.63;;;10.97;100.00
18918;BME280;9591;52.742;13.650;2023-02-12T11:15:37;103239.88;;;11.09;100.00
18918;BME280;9591;52.742;13.650;2023-02-12T11:18:32;103247.81;;;11.06;100.00
18918;BME280;9591;52.742;13.650;2023-02-12T11:21:22;103239.84;;;11.00;100.00
18918;BME280;9591;52.742;13.650;2023-02-12T11:24:29;103242.47;;;10.97;100.00
18918;BME280;9591;52.742;13.650;2023-02-12T11:27:21;103250.38;;;10.88;100.00
18918;BME280;9591;52.742;13.650;2023-02-12T11:30:17;103246.88;;;10.95;100.00
18918;BME280;9591;52.742;13.650;2023-02-12T11:33:20;103245.00;;;10.79;100.00
18918;BME280;9591;52.742;13.650;2023-02-12T11:36:22;103235.25;;;10.72;100.00
18918;BME280;9591;52.742;13.650;2023-02-12T11:39:17;103241.44;;;10.75;100.00
18918;BME280;9591;52.742;13.650;2023-02-12T11:42:13;103235.25;;;10.75;100.00
18918;BME280;9591;52.742;13.650;2023-02-12T11:45:01;103231.72;;;10.74;100.00
18918;BME280;9591;52.742;13.650;2023-02-12T11:47:49;103225.47;;;10.63;100.00
18918;BME280;9591;52.742;13.650;2023-02-12T11:50:38;103223.53;;;10.39;100.00
18918;BME280;9591;52.742;13.650;2023-02-12T11:53:34;103235.97;;;10.51;100.00
18918;BME280;9591;52.742;13.650;2023-02-12T11:56:22;103234.09;;;10.33;100.00
18918;BME280;9591;52.742;13.650;2023-02-12T11:59:16;103234.22;;;10.55;100.00
18918;BME280;9591;52.742;13.650;2023-02-12T12:02:16;103228.97;;;10.61;100.00
18918;BME280;9591;52.742;13.650;2023-02-12T12:05:10;103226.25;;;10.53;100.00
18918;BME280;9591;52.742;13.650;2023-02-12T12:08:03;103227.09;;;10.47;100.00
18918;BME280;9591;52.742;13.650;2023-02-12T12:10:55;103227.19;;;10.60;100.00
18918;BME280;9591;52.742;13.650;2023-02-12T12:13:48;103229.03;;;10.70;100.00
18918;BME280;9591;52.742;13.650;2023-02-12T12:16:41;103223.66;;;10.61;100.00
18918;BME280;9591;52.742;13.650;2023-02-12T12:19:52;103214.94;;;10.75;100.00
18918;BME280;9591;52.742;13.650;2023-02-12T12:22:47;103206.94;;;10.71;100.00
18918;BME280;9591;52.742;13.650;2023-02-12T12:25:42;103211.53;;;10.99;100.00
18918;BME280;9591;52.742;13.650;2023-02-12T12:28:34;103207.09;;;10.92;100.00
18918;BME280;9591;52.742;13.650;2023-02-12T12:31:25;103203.59;;;11.01;100.00
18918;BME280;9591;52.742;13.650;2023-02-12T12:34:16;103213.44;;;11.25;100.00
18918;BME280;9591;52.742;13.650;2023-02-12T12:37:26;103211.69;;;11.39;100.00
18918;BME280;9591;52.742;13.650;2023-02-12T12:40:37;103210.78;;;11.25;100.00
18918;BME280;9591;52.742;13.650;2023-02-12T12:43:37;103198.44;;;11.45;100.00
18918;BME280;9591;52.742;13.650;2023-02-12T12:46:41;103195.03;;;11.81;100.00
18918;BME280;9591;52.742;13.650;2023-02-12T12:49:50;103197.69;;;11.79;100.00
18918;BME280;9591;52.742;13.650;2023-02-12T12:52:51;103198.47;;;11.51;100.00
18918;BME280;9591;52.742;13.650;2023-02-12T12:56:08;103201.97;;;11.38;100.00
18918;BME280;9591;52.742;13.650;2023-02-12T12:59:18;103195.81;;;11.48;100.00
18918;BME280;9591;52.742;13.650;2023-02-12T13:02:39;103192.38;;;11.79;100.00
18918;BME280;9591;52.742;13.650;2023-02-12T13:05:41;103195.06;;;12.01;100.00
18918;BME280;9591;52.742;13.650;2023-02-12T13:08:42;103188.88;;;12.11;100.00
18918;BME280;9591;52.742;13.650;2023-02-12T13:11:38;103199.47;;;11.90;100.00
18918;BME280;9591;52.742;13.650;2023-02-12T13:14:36;103200.34;;;11.82;100.00
18918;BME280;9591;52.742;13.650;2023-02-12T13:17:33;103196.75;;;11.73;100.00
18918;BME280;9591;52.742;13.650;2023-02-12T13:20:32;103191.38;;;11.47;100.00
18918;BME280;9591;52.742;13.650;2023-02-12T13:23:29;103188.72;;;11.47;100.00
18918;BME280;9591;52.742;13.650;2023-02-12T13:26:24;103175.41;;;11.33;100.00
18918;BME280;9591;52.742;13.650;2023-02-12T13:29:18;103186.88;;;11.20;100.00
18918;BME280;9591;52.742;13.650;2023-02-12T13:32:13;103183.38;;;11.33;100.00
18918;BME280;9591;52.742;13.650;2023-02-12T13:35:04;103170.13;;;11.41;100.00
18918;BME280;9591;52.742;13.650;2023-02-12T13:37:53;103171.09;;;11.76;100.00
18918;BME280;9591;52.742;13.650;2023-02-12T13:40:40;103164.06;;;11.97;100.00
18918;BME280;9591;52.742;13.650;2023-02-12T13:43:46;103166.66;;;11.74;100.00
18918;BME280;9591;52.742;13.650;2023-02-12T13:46:45;103171.13;;;11.82;100.00
18918;BME280;9591;52.742;13.650;2023-02-12T13:49:42;103167.59;;;12.02;100.00
18918;BME280;9591;52.742;13.650;2023-02-12T13:52:36;103162.28;;;11.91;100.00
18918;BME280;9591;52.742;13.650;2023-02-12T13:55:32;103159.59;;;12.17;100.00
18918;BME280;9591;52.742;13.650;2023-02-12T13:58:45;103161.41;;;12.04;100.00
18918;BME280;9591;52.742;13.650;2023-02-12T14:01:38;103164.06;;;12.09;100.00
18918;BME280;9591;52.742;13.650;2023-02-12T14:04:29;103167.56;;;12.19;100.00
18918;BME280;9591;52.742;13.650;2023-02-12T14:07:19;103156.09;;;12.09;99.57
18918;BME280;9591;52.742;13.650;2023-02-12T14:10:17;103153.44;;;11.95;100.00
18918;BME280;9591;52.742;13.650;2023-02-12T14:13:14;103139.28;;;11.92;99.59
18918;BME280;9591;52.742;13.650;2023-02-12T14:16:22;103155.19;;;11.86;100.00
18918;BME280;9591;52.742;13.650;2023-02-12T14:19:53;103146.34;;;11.96;99.91
18918;BME280;9591;52.742;13.650;2023-02-12T14:26:21;103153.44;;;12.07;99.46
18918;BME280;9591;52.742;13.650;2023-02-12T14:29:17;103156.09;;;11.92;100.00
18918;BME280;9591;52.742;13.650;2023-02-12T14:35:31;103158.75;;;11.86;99.58
18918;BME280;9591;52.742;13.650;2023-02-12T14:38:57;103163.13;;;11.70;100.00
18918;BME280;9591;52.742;13.650;2023-02-12T14:41:47;103161.34;;;11.66;100.00
18918;BME280;9591;52.742;13.650;2023-02-12T14:44:43;103164.00;;;11.75;100.00
18918;BME280;9591;52.742;13.650;2023-02-12T14:47:50;103164.00;;;11.65;100.00
18918;BME280;9591;52.742;13.650;2023-02-12T14:50:43;103166.66;;;11.75;100.00
18918;BME280;9591;52.742;13.650;2023-02-12T14:53:36;103159.63;;;11.90;100.00
18918;BME280;9591;52.742;13.650;2023-02-12T14:56:24;103164.94;;;11.77;100.00
18918;BME280;9591;52.742;13.650;2023-02-12T14:59:18;103165.75;;;11.61;100.00
18918;BME280;9591;52.742;13.650;2023-02-12T15:02:07;103164.00;;;11.74;100.00
18918;BME280;9591;52.742;13.650;2023-02-12T15:05:02;103141.81;;;11.46;100.00